createdAt,value
2019-04-01T00:00:43.532Z,39.60
2019-04-01T00:03:29.852Z,39.50
2019-04-01T00:06:16.194Z,39.50
2019-04-01T00:09:02.491Z,39.50
2019-04-01T00:11:49.907Z,39.40
2019-04-01T00:14:36.032Z,39.40
2019-04-01T00:17:22.239Z,39.40
2019-04-01T00:20:08.543Z,39.40
2019-04-01T00:22:54.895Z,39.40
2019-04-01T00:25:40.831Z,39.40
2019-04-01T00:28:27.204Z,39.40
2019-04-01T00:31:12.883Z,39.40
2019-04-01T00:33:59.363Z,39.40
2019-04-01T00:36:45.521Z,39.30
2019-04-01T00:39:31.738Z,39.30
2019-04-01T00:42:23.047Z,39.30
2019-04-01T00:45:11.352Z,39.20
2019-04-01T00:47:57.656Z,39.20
2019-04-01T00:50:43.795Z,39.20
2019-04-01T00:53:29.961Z,39.20
2019-04-01T00:56:16.459Z,39.20
2019-04-01T00:59:03.616Z,39.20
2019-04-01T01:01:49.261Z,39.10
2019-04-01T01:04:35.283Z,39.20
2019-04-01T01:07:21.359Z,39.10
2019-04-01T01:10:08.023Z,39.10
2019-04-01T01:12:54.251Z,39.10
2019-04-01T01:15:40.316Z,39.10
2019-04-01T01:18:26.659Z,39.10
2019-04-01T01:21:12.764Z,39.10
2019-04-01T01:23:58.916Z,39.10
2019-04-01T01:26:44.640Z,39.10
2019-04-01T01:29:31.169Z,39.10
2019-04-01T01:32:17.264Z,39.10
2019-04-01T01:35:04.208Z,39.10
2019-04-01T01:37:50.012Z,39.00
2019-04-01T01:40:35.895Z,39.10
2019-04-01T01:43:21.963Z,39.00
2019-04-01T01:46:08.163Z,39.00
2019-04-01T01:48:54.669Z,38.90
2019-04-01T01:51:42.637Z,39.00
2019-04-01T01:54:28.778Z,38.90
2019-04-01T01:57:15.114Z,38.90
2019-04-01T02:00:01.268Z,38.90
2019-04-01T02:02:47.800Z,38.90
2019-04-01T02:05:34.076Z,39.10
2019-04-01T02:08:20.211Z,38.90
2019-04-01T02:11:06.364Z,38.90
2019-04-01T02:13:52.696Z,38.90
2019-04-01T02:16:39.845Z,38.90
2019-04-01T02:19:26.219Z,38.90
2019-04-01T02:22:12.399Z,38.90
2019-04-01T02:24:59.556Z,38.90
2019-04-01T02:27:46.249Z,38.90
2019-04-01T02:30:32.464Z,38.90
2019-04-01T02:33:18.556Z,38.80
2019-04-01T02:36:04.857Z,38.90
2019-04-01T02:38:51.985Z,38.90
2019-04-01T02:41:38.456Z,38.90
2019-04-01T02:44:25.658Z,38.90
2019-04-01T02:47:11.762Z,38.80
2019-04-01T02:49:57.803Z,38.80
2019-04-01T02:52:44.084Z,38.80
2019-04-01T02:55:30.197Z,38.70
2019-04-01T02:58:16.551Z,38.80
2019-04-01T03:01:02.830Z,38.70
2019-04-01T03:03:48.975Z,38.60
2019-04-01T03:06:35.059Z,38.60
2019-04-01T03:09:21.336Z,38.60
2019-04-01T03:12:07.462Z,38.50
2019-04-01T03:14:53.732Z,38.50
2019-04-01T03:17:39.950Z,38.50
2019-04-01T03:20:26.182Z,38.50
2019-04-01T03:23:12.337Z,38.40
2019-04-01T03:25:58.629Z,38.40
2019-04-01T03:28:44.677Z,38.40
2019-04-01T03:31:31.225Z,38.40
2019-04-01T03:34:17.326Z,38.40
2019-04-01T03:37:03.919Z,38.40
2019-04-01T03:39:49.712Z,38.30
2019-04-01T03:42:35.828Z,38.30
2019-04-01T03:45:22.077Z,38.30
2019-04-01T03:48:08.433Z,38.30
2019-04-01T03:50:54.542Z,38.20
2019-04-01T03:53:40.464Z,38.30
2019-04-01T03:56:26.525Z,38.30
2019-04-01T03:59:12.828Z,38.30
2019-04-01T04:01:59.101Z,38.30
2019-04-01T04:04:45.196Z,38.20
2019-04-01T04:07:32.071Z,38.20
2019-04-01T04:10:18.351Z,38.30
2019-04-01T04:13:04.512Z,38.20
2019-04-01T04:15:50.181Z,38.20
2019-04-01T04:18:36.341Z,38.20
2019-04-01T04:21:24.159Z,38.20
2019-04-01T04:24:10.215Z,38.20
2019-04-01T04:26:56.456Z,38.20
2019-04-01T04:29:42.531Z,38.20
2019-04-01T04:32:31.551Z,38.20
2019-04-01T04:35:17.522Z,38.30
2019-04-01T04:38:03.731Z,38.20
2019-04-01T04:40:49.813Z,38.30
2019-04-01T04:43:36.085Z,38.40
2019-04-01T04:46:22.245Z,38.40
2019-04-01T04:49:08.480Z,38.30
2019-04-01T04:51:54.545Z,38.40
2019-04-01T04:54:40.716Z,38.50
2019-04-01T04:57:27.275Z,38.50
2019-04-01T05:00:17.827Z,38.40
2019-04-01T05:03:04.571Z,38.30
2019-04-01T05:05:50.865Z,38.30
2019-04-01T05:08:37.217Z,38.20
2019-04-01T05:11:23.365Z,37.80
2019-04-01T05:14:10.578Z,36.40
2019-04-01T05:16:56.764Z,37.10
2019-04-01T05:19:42.791Z,37.20
2019-04-01T05:22:28.821Z,37.40
2019-04-01T05:25:14.749Z,37.90
2019-04-01T05:28:07.503Z,38.20
2019-04-01T05:30:54.811Z,38.40
2019-04-01T05:33:54.763Z,38.40
2019-04-01T05:36:31.393Z,38.40
2019-04-01T05:39:17.497Z,38.40
2019-04-01T05:42:03.201Z,38.20
2019-04-01T05:44:49.403Z,37.90
2019-04-01T05:47:44.660Z,37.70
2019-04-01T05:50:31.027Z,37.30
2019-04-01T05:53:16.795Z,37.20
2019-04-01T05:56:03.884Z,36.80
2019-04-01T05:58:50.255Z,36.50
2019-04-01T06:01:39.831Z,36.20
2019-04-01T06:04:25.621Z,36.10
2019-04-01T06:07:11.914Z,35.70
2019-04-01T06:09:57.948Z,35.40
2019-04-01T06:12:44.969Z,35.20
2019-04-01T06:15:30.841Z,35.00
2019-04-01T06:18:17.188Z,34.70
2019-04-01T06:21:04.073Z,34.50
2019-04-01T06:23:50.337Z,34.30
2019-04-01T06:26:36.208Z,34.00
2019-04-01T06:29:22.603Z,33.70
2019-04-01T06:32:08.203Z,33.60
2019-04-01T06:34:54.471Z,33.30
2019-04-01T06:37:40.675Z,33.20
2019-04-01T06:40:26.867Z,33.00
2019-04-01T06:43:13.024Z,32.80
2019-04-01T06:45:59.230Z,32.60
2019-04-01T06:48:45.367Z,32.40
2019-04-01T06:51:31.502Z,32.20
2019-04-01T06:54:17.579Z,32.00
2019-04-01T06:57:03.763Z,31.80
2019-04-01T06:59:50.252Z,31.50
2019-04-01T07:02:36.219Z,31.50
2019-04-01T07:05:22.470Z,31.20
2019-04-01T07:08:09.152Z,31.00
2019-04-01T07:10:54.959Z,30.80
2019-04-01T07:13:40.673Z,30.70
2019-04-01T07:16:26.682Z,30.40
2019-04-01T07:19:12.971Z,30.30
2019-04-01T07:22:00.015Z,30.20
2019-04-01T07:24:46.081Z,30.00
2019-04-01T07:27:34.188Z,30.00
2019-04-01T07:30:20.552Z,29.90
2019-04-01T07:33:06.567Z,29.90
2019-04-01T07:35:52.608Z,29.80
2019-04-01T07:38:38.804Z,29.80
2019-04-01T07:41:25.036Z,29.80
2019-04-01T07:44:11.056Z,29.70
2019-04-01T07:46:57.391Z,29.60
2019-04-01T07:49:43.647Z,29.50
2019-04-01T07:52:30.235Z,29.50
2019-04-01T07:55:16.396Z,29.40
2019-04-01T07:58:02.423Z,29.30
2019-04-01T08:00:48.489Z,29.20
2019-04-01T08:03:34.570Z,29.10
2019-04-01T08:06:20.606Z,29.00
2019-04-01T08:09:07.572Z,28.90
2019-04-01T08:11:53.703Z,28.80
2019-04-01T08:14:39.971Z,28.70
2019-04-01T08:17:26.218Z,28.70
2019-04-01T08:20:13.216Z,28.60
2019-04-01T08:22:59.052Z,28.50
2019-04-01T08:25:47.935Z,28.50
2019-04-01T08:28:33.471Z,28.50
2019-04-01T08:31:19.639Z,28.40
2019-04-01T08:34:06.436Z,28.30
2019-04-01T08:36:52.675Z,28.30
2019-04-01T08:39:38.916Z,28.20
2019-04-01T08:42:25.071Z,28.20
2019-04-01T08:45:11.393Z,28.20
2019-04-01T08:47:57.587Z,28.20
2019-04-01T08:50:44.057Z,28.20
2019-04-01T08:53:30.037Z,28.10
2019-04-01T08:56:16.791Z,28.20
2019-04-01T08:59:02.945Z,28.20
2019-04-01T09:01:48.984Z,28.10
2019-04-01T09:04:35.290Z,28.10
2019-04-01T09:07:21.288Z,28.20
2019-04-01T09:10:07.139Z,28.10
2019-04-01T09:12:53.551Z,28.20
2019-04-01T09:15:40.987Z,28.20
2019-04-01T09:18:27.043Z,28.20
2019-04-01T09:21:13.321Z,28.20
2019-04-01T09:23:59.489Z,28.30
2019-04-01T09:26:45.687Z,28.30
2019-04-01T09:29:31.951Z,28.30
2019-04-01T09:32:18.095Z,28.40
2019-04-01T09:35:05.983Z,28.40
2019-04-01T09:37:52.128Z,28.40
2019-04-01T09:40:38.281Z,28.50
2019-04-01T09:43:24.720Z,28.50
2019-04-01T09:46:10.891Z,28.50
2019-04-01T09:48:57.274Z,28.50
2019-04-01T09:51:48.945Z,28.60
2019-04-01T09:54:31.229Z,28.60
2019-04-01T09:57:18.436Z,28.60
2019-04-01T10:00:05.677Z,28.70
2019-04-01T10:02:53.995Z,28.70
2019-04-01T10:05:40.199Z,28.70
2019-04-01T10:08:41.155Z,28.70
2019-04-01T10:11:14.153Z,28.80
2019-04-01T10:14:00.286Z,28.90
2019-04-01T10:16:46.488Z,28.90
2019-04-01T10:19:32.675Z,29.00
2019-04-01T10:22:18.553Z,29.10
2019-04-01T10:25:05.040Z,29.10
2019-04-01T10:27:51.139Z,29.20
2019-04-01T10:30:37.147Z,29.30
2019-04-01T10:33:23.802Z,29.50
2019-04-01T10:36:09.841Z,29.50
2019-04-01T10:38:56.140Z,29.50
2019-04-01T10:41:41.782Z,29.60
2019-04-01T10:44:27.484Z,29.70
2019-04-01T10:47:13.713Z,29.70
2019-04-01T10:49:59.920Z,29.70
2019-04-01T10:52:45.979Z,29.80
2019-04-01T10:55:32.188Z,29.80
2019-04-01T10:58:18.268Z,29.80
2019-04-01T11:01:04.396Z,29.90
2019-04-01T11:03:50.541Z,30.00
2019-04-01T11:06:36.757Z,30.00
2019-04-01T11:09:37.373Z,30.00
2019-04-01T11:12:10.639Z,30.10
2019-04-01T11:14:56.779Z,30.20
2019-04-01T11:17:43.916Z,30.30
2019-04-01T11:20:30.296Z,30.30
2019-04-01T11:23:16.395Z,30.40
2019-04-01T11:26:02.961Z,30.40
2019-04-01T11:28:49.251Z,30.40
2019-04-01T11:31:35.415Z,30.50
2019-04-01T11:34:21.781Z,30.50
2019-04-01T11:37:07.979Z,30.50
2019-04-01T11:39:54.087Z,30.50
2019-04-01T11:42:40.814Z,30.60
2019-04-01T11:45:26.947Z,30.70
2019-04-01T11:48:13.032Z,30.80
2019-04-01T11:50:59.328Z,30.80
2019-04-01T11:53:45.460Z,30.90
2019-04-01T11:56:31.423Z,30.90
2019-04-01T11:59:17.611Z,31.00
2019-04-01T12:02:03.696Z,31.00
2019-04-01T12:04:49.853Z,31.00
2019-04-01T12:07:37.435Z,31.00
2019-04-01T12:10:23.524Z,31.00
2019-04-01T12:13:09.755Z,31.10
2019-04-01T12:15:56.090Z,31.10
2019-04-01T12:18:42.128Z,31.30
2019-04-01T12:21:28.292Z,31.30
2019-04-01T12:24:14.446Z,31.40
2019-04-01T12:27:00.823Z,31.50
2019-04-01T12:29:48.378Z,31.60
2019-04-01T12:32:34.548Z,31.60
2019-04-01T12:35:20.793Z,31.60
2019-04-01T12:38:07.052Z,31.60
2019-04-01T12:40:53.066Z,31.70
2019-04-01T12:43:39.171Z,31.80
2019-04-01T12:46:27.120Z,32.00
2019-04-01T12:49:13.342Z,31.90
2019-04-01T12:51:59.363Z,32.00
2019-04-01T12:54:45.551Z,32.20
2019-04-01T12:57:31.763Z,32.20
2019-04-01T13:00:18.071Z,32.30
2019-04-01T13:03:05.134Z,32.40
2019-04-01T13:05:51.099Z,32.50
2019-04-01T13:08:37.380Z,32.70
2019-04-01T13:11:23.579Z,32.60
2019-04-01T13:14:09.731Z,32.70
2019-04-01T13:16:55.827Z,32.80
2019-04-01T13:19:42.147Z,33.00
2019-04-01T13:22:28.247Z,33.10
2019-04-01T13:25:15.464Z,33.30
2019-04-01T13:28:01.655Z,33.40
2019-04-01T13:30:48.175Z,33.40
2019-04-01T13:33:33.892Z,33.30
2019-04-01T13:36:21.011Z,33.30
2019-04-01T13:39:07.260Z,33.10
2019-04-01T13:41:56.180Z,32.90
2019-04-01T13:44:41.571Z,32.90
2019-04-01T13:47:27.835Z,32.70
2019-04-01T13:50:16.335Z,32.70
2019-04-01T13:53:01.213Z,32.50
2019-04-01T13:55:47.306Z,33.00
2019-04-01T13:58:33.743Z,33.30
2019-04-01T14:01:19.884Z,33.40
2019-04-01T14:04:06.315Z,33.70
2019-04-01T14:06:52.635Z,33.90
2019-04-01T14:09:38.808Z,33.90
2019-04-01T14:12:24.980Z,34.10
2019-04-01T14:15:12.035Z,34.40
2019-04-01T14:17:58.125Z,34.30
2019-04-01T14:20:44.488Z,34.40
2019-04-01T14:23:30.645Z,34.40
2019-04-01T14:26:16.804Z,34.40
2019-04-01T14:29:03.092Z,34.30
2019-04-01T14:31:49.699Z,34.40
2019-04-01T14:34:35.890Z,34.50
2019-04-01T14:37:25.640Z,34.50
2019-04-01T14:40:09.791Z,34.40
2019-04-01T14:42:55.907Z,34.50
2019-04-01T14:45:42.196Z,34.60
2019-04-01T14:48:28.539Z,34.50
2019-04-01T14:51:14.485Z,34.70
2019-04-01T14:54:00.848Z,34.70
2019-04-01T14:56:47.049Z,35.00
2019-04-01T14:59:33.351Z,34.70
2019-04-01T15:02:19.880Z,34.60
2019-04-01T15:05:05.728Z,34.90
2019-04-01T15:07:52.851Z,34.90
2019-04-01T15:10:41.064Z,34.80
2019-04-01T15:13:26.163Z,34.80
2019-04-01T15:16:12.100Z,34.70
2019-04-01T15:18:58.180Z,34.70
2019-04-01T15:21:47.210Z,34.80
2019-04-01T15:24:31.872Z,34.90
2019-04-01T15:27:17.988Z,34.80
2019-04-01T15:30:05.055Z,35.00
2019-04-01T15:32:52.165Z,34.80
2019-04-01T15:35:38.358Z,34.70
2019-04-01T15:38:26.340Z,34.60
2019-04-01T15:41:12.208Z,34.70
2019-04-01T15:43:58.359Z,34.90
2019-04-01T15:46:44.449Z,35.10
2019-04-01T15:49:30.987Z,34.70
2019-04-01T15:52:17.103Z,34.90
2019-04-01T15:55:03.512Z,35.10
2019-04-01T15:57:49.352Z,34.90
2019-04-01T16:00:35.722Z,35.10
2019-04-01T16:03:21.781Z,35.20
2019-04-01T16:06:08.379Z,35.30
2019-04-01T16:08:54.527Z,35.20
2019-04-01T16:11:40.778Z,35.10
2019-04-01T16:14:26.995Z,35.20
2019-04-01T16:17:13.100Z,35.30
2019-04-01T16:19:59.411Z,35.40
2019-04-01T16:22:45.485Z,35.30
2019-04-01T16:25:31.552Z,35.30
2019-04-01T16:28:17.979Z,35.30
2019-04-01T16:31:04.079Z,35.20
2019-04-01T16:33:50.289Z,35.40
2019-04-01T16:36:36.535Z,35.60
2019-04-01T16:39:22.659Z,35.50
2019-04-01T16:42:08.273Z,35.50
2019-04-01T16:44:54.463Z,35.60
2019-04-01T16:47:40.664Z,35.50
2019-04-01T16:50:28.614Z,35.80
2019-04-01T16:53:14.087Z,35.80
2019-04-01T16:56:00.230Z,35.80
2019-04-01T16:58:46.368Z,35.90
2019-04-01T17:01:32.483Z,35.90
2019-04-01T17:04:18.563Z,35.80
2019-04-01T17:07:05.969Z,36.00
2019-04-01T17:09:58.047Z,35.90
2019-04-01T17:12:42.663Z,35.80
2019-04-01T17:15:28.771Z,36.00
2019-04-01T17:18:15.325Z,35.90
2019-04-01T17:21:01.412Z,35.50
2019-04-01T17:23:47.624Z,35.50
2019-04-01T17:27:15.472Z,35.40
2019-04-01T17:30:01.517Z,35.40
2019-04-01T17:32:47.600Z,35.90
2019-04-01T17:35:33.731Z,37.00
2019-04-01T17:38:20.036Z,36.50
2019-04-01T17:41:06.256Z,36.60
2019-04-01T17:43:52.484Z,36.60
2019-04-01T17:46:38.811Z,36.60
2019-04-01T17:49:25.013Z,36.60
2019-04-01T17:52:11.383Z,36.40
2019-04-01T17:54:57.575Z,37.10
2019-04-01T17:57:43.672Z,36.40
2019-04-01T18:00:30.599Z,36.40
2019-04-01T18:03:16.585Z,36.40
2019-04-01T18:06:02.716Z,36.50
2019-04-01T18:08:48.874Z,36.40
2019-04-01T18:11:35.107Z,36.30
2019-04-01T18:14:21.195Z,36.40
2019-04-01T18:17:07.389Z,36.40
2019-04-01T18:19:53.539Z,36.40
2019-04-01T18:22:39.684Z,36.40
2019-04-01T18:25:25.928Z,36.50
2019-04-01T18:28:12.942Z,36.50
2019-04-01T18:30:59.237Z,36.60
2019-04-01T18:33:56.115Z,36.50
2019-04-01T18:36:34.790Z,36.40
2019-04-01T18:39:20.560Z,36.50
2019-04-01T18:42:06.807Z,36.40
2019-04-01T18:44:54.071Z,36.40
2019-04-01T18:47:40.461Z,36.40
2019-04-01T18:50:26.603Z,36.40
2019-04-01T18:53:12.303Z,36.40
2019-04-01T18:55:58.052Z,36.40
2019-04-01T18:58:44.136Z,36.50
2019-04-01T19:01:30.106Z,36.50
2019-04-01T19:04:16.146Z,36.50
2019-04-01T19:07:03.361Z,36.40
2019-04-01T19:09:50.002Z,36.40
2019-04-01T19:12:36.491Z,36.40
2019-04-01T19:15:23.147Z,36.40
2019-04-01T19:18:09.177Z,36.30
2019-04-01T19:20:59.264Z,36.30
2019-04-01T19:23:44.168Z,36.20
2019-04-01T19:26:30.505Z,36.10
2019-04-01T19:29:16.770Z,36.10
2019-04-01T19:32:02.908Z,36.10
2019-04-01T19:34:49.000Z,36.10
2019-04-01T19:37:35.320Z,36.10
2019-04-01T19:40:23.000Z,36.10
2019-04-01T19:43:09.117Z,36.10
2019-04-01T19:45:55.420Z,36.10
2019-04-01T19:48:41.619Z,36.00
2019-04-01T19:51:28.215Z,36.00
2019-04-01T19:54:15.017Z,36.00
2019-04-01T19:57:01.185Z,36.10
2019-04-01T19:59:47.420Z,36.10
2019-04-01T20:02:34.321Z,36.00
2019-04-01T20:05:21.141Z,36.00
2019-04-01T20:08:07.411Z,35.90
2019-04-01T20:10:53.594Z,36.00
2019-04-01T20:13:42.688Z,35.90
2019-04-01T20:16:27.503Z,36.00
2019-04-01T20:19:13.655Z,35.90
2019-04-01T20:21:59.777Z,35.90
2019-04-01T20:24:45.980Z,35.90
2019-04-01T20:27:32.086Z,35.90
2019-04-01T20:30:18.452Z,35.90
2019-04-01T20:33:16.854Z,35.90
2019-04-01T20:35:52.021Z,35.90
2019-04-01T20:38:39.101Z,35.90
2019-04-01T20:41:25.205Z,35.80
2019-04-01T20:44:11.445Z,35.80
2019-04-01T20:46:58.418Z,35.90
2019-04-01T20:49:44.716Z,35.90
2019-04-01T20:52:30.875Z,35.90
2019-04-01T20:55:17.083Z,35.90
2019-04-01T20:58:03.368Z,35.90
2019-04-01T21:00:49.508Z,35.90
2019-04-01T21:03:35.719Z,35.90
2019-04-01T21:06:22.066Z,35.90
2019-04-01T21:09:08.583Z,35.80
2019-04-01T21:11:54.535Z,35.80
2019-04-01T21:14:40.651Z,35.90
2019-04-01T21:17:26.659Z,35.90
2019-04-01T21:20:13.204Z,35.80
2019-04-01T21:22:59.519Z,35.90
2019-04-01T21:25:45.639Z,35.90
2019-04-01T21:28:32.028Z,35.90
2019-04-01T21:31:18.159Z,35.90
2019-04-01T21:34:07.687Z,35.90
2019-04-01T21:36:53.100Z,35.80
2019-04-01T21:39:38.928Z,35.90
2019-04-01T21:42:24.990Z,35.80
2019-04-01T21:45:11.481Z,35.80
2019-04-01T21:47:57.449Z,35.80
2019-04-01T21:50:43.780Z,35.80
2019-04-01T21:53:31.062Z,35.80
2019-04-01T21:56:17.123Z,35.80
2019-04-01T21:59:05.504Z,35.90
2019-04-01T22:01:52.216Z,35.90
2019-04-01T22:04:38.393Z,35.90
2019-04-01T22:07:24.595Z,35.80
2019-04-01T22:10:10.544Z,35.80
2019-04-01T22:12:56.806Z,35.80
2019-04-01T22:15:42.923Z,35.70
2019-04-01T22:18:29.133Z,35.70
2019-04-01T22:21:14.552Z,35.80
2019-04-01T22:24:00.375Z,35.70
2019-04-01T22:26:45.989Z,35.70
2019-04-01T22:29:31.822Z,35.70
2019-04-01T22:32:17.451Z,35.60
2019-04-01T22:35:05.302Z,35.60
2019-04-01T22:37:51.242Z,35.60
2019-04-01T22:40:37.079Z,35.60
2019-04-01T22:43:23.201Z,35.60
2019-04-01T22:46:09.111Z,35.50
2019-04-01T22:48:54.866Z,35.60
2019-04-01T22:51:40.911Z,35.50
2019-04-01T22:54:26.672Z,35.60
2019-04-01T22:57:12.295Z,35.60
2019-04-01T22:59:57.958Z,35.60
2019-04-01T23:02:43.603Z,35.60
2019-04-01T23:05:30.262Z,35.50
2019-04-01T23:08:16.047Z,35.50
2019-04-01T23:11:01.756Z,35.50
2019-04-01T23:13:48.319Z,35.40
2019-04-01T23:16:34.523Z,35.50
2019-04-01T23:19:20.136Z,35.40
2019-04-01T23:22:05.996Z,35.40
2019-04-01T23:24:51.592Z,35.40
2019-04-01T23:27:37.673Z,35.40
2019-04-01T23:30:23.472Z,35.40
2019-04-01T23:33:09.527Z,35.40
2019-04-01T23:35:55.356Z,35.40
2019-04-01T23:38:43.541Z,35.30
2019-04-01T23:41:30.634Z,35.40
2019-04-01T23:44:16.414Z,35.30
2019-04-01T23:47:02.924Z,35.30
2019-04-01T23:49:48.492Z,35.30
2019-04-01T23:52:34.307Z,35.30
2019-04-01T23:55:20.355Z,35.30
2019-04-01T23:58:05.886Z,35.30
